sensor_id;sensor_type;location;lat;lon;timestamp;pressure;altitude;pressure_sealevel;temperature;humidity
12247;BME280;6186;52.022;4.692;2023-02-23T00:01:37;101452.03;;;9.30;100.00
12247;BME280;6186;52.022;4.692;2023-02-23T00:04:03;101459.94;;;9.30;100.00
12247;BME280;6186;52.022;4.692;2023-02-23T00:07:03;101460.81;;;9.30;100.00
12247;BME280;6186;52.022;4.692;2023-02-23T00:09:30;101456.47;;;9.26;100.00
12247;BME280;6186;52.022;4.692;2023-02-23T00:12:01;101456.44;;;9.31;100.00
12247;BME280;6186;52.022;4.692;2023-02-23T00:14:33;101457.31;;;9.30;100.00
12247;BME280;6186;52.022;4.692;2023-02-23T00:16:59;101454.72;;;9.25;100.00
12247;BME280;6186;52.022;4.692;2023-02-23T00:19:25;101461.69;;;9.29;100.00
12247;BME280;6186;52.022;4.692;2023-02-23T00:21:52;101462.56;;;9.30;100.00
12247;BME280;6186;52.022;4.692;2023-02-23T00:24:17;101459.94;;;9.28;100.00
12247;BME280;6186;52.022;4.692;2023-02-23T00:26:44;101461.69;;;9.31;100.00
12247;BME280;6186;52.022;4.692;2023-02-23T00:29:14;101457.31;;;9.30;100.00
12247;BME280;6186;52.022;4.692;2023-02-23T00:31:42;101458.19;;;9.30;100.00
12247;BME280;6186;52.022;4.692;2023-02-23T00:34:09;101451.22;;;9.26;100.00
12247;BME280;6186;52.022;4.692;2023-02-23T00:36:35;101451.19;;;9.28;100.00
12247;BME280;6186;52.022;4.692;2023-02-23T00:39:07;101457.31;;;9.28;100.00
12247;BME280;6186;52.022;4.692;2023-02-23T00:41:44;101455.56;;;9.27;100.00
12247;BME280;6186;52.022;4.692;2023-02-23T00:44:10;101448.63;;;9.23;100.00
12247;BME280;6186;52.022;4.692;2023-02-23T00:46:36;101455.56;;;9.29;100.00
12247;BME280;6186;52.022;4.692;2023-02-23T00:49:01;101450.31;;;9.29;100.00
12247;BME280;6186;52.022;4.692;2023-02-23T00:51:28;101447.69;;;9.27;100.00
12247;BME280;6186;52.022;4.692;2023-02-23T00:53:56;101448.59;;;9.25;100.00
12247;BME280;6186;52.022;4.692;2023-02-23T00:56:22;101446.00;;;9.23;100.00
12247;BME280;6186;52.022;4.692;2023-02-23T00:58:47;101452.97;;;9.24;100.00
12247;BME280;6186;52.022;4.692;2023-02-23T01:01:13;101448.59;;;9.25;100.00
12247;BME280;6186;52.022;4.692;2023-02-23T01:03:41;101452.09;;;9.24;100.00
12247;BME280;6186;52.022;4.692;2023-02-23T01:06:09;101452.97;;;9.26;100.00
12247;BME280;6186;52.022;4.692;2023-02-23T01:08:40;101454.72;;;9.25;100.00
12247;BME280;6186;52.022;4.692;2023-02-23T01:11:13;101456.50;;;9.25;100.00
12247;BME280;6186;52.022;4.692;2023-02-23T01:13:40;101459.97;;;9.25;100.00
12247;BME280;6186;52.022;4.692;2023-02-23T01:16:08;101450.41;;;9.21;100.00
12247;BME280;6186;52.022;4.692;2023-02-23T01:18:34;101457.34;;;9.25;100.00
12247;BME280;6186;52.022;4.692;2023-02-23T01:21:01;101459.97;;;9.25;100.00
12247;BME280;6186;52.022;4.692;2023-02-23T01:23:26;101459.09;;;9.26;100.00
12247;BME280;6186;52.022;4.692;2023-02-23T01:25:52;101465.22;;;9.25;100.00
12247;BME280;6186;52.022;4.692;2023-02-23T01:28:17;101465.25;;;9.24;100.00
12247;BME280;6186;52.022;4.692;2023-02-23T01:30:42;101453.88;;;9.25;100.00
12247;BME280;6186;52.022;4.692;2023-02-23T01:33:09;101459.97;;;9.25;100.00
12247;BME280;6186;52.022;4.692;2023-02-23T01:35:34;101458.25;;;9.24;100.00
12247;BME280;6186;52.022;4.692;2023-02-23T01:38:00;101465.22;;;9.25;100.00
12247;BME280;6186;52.022;4.692;2023-02-23T01:40:26;101464.38;;;9.25;100.00
12247;BME280;6186;52.022;4.692;2023-02-23T01:42:57;101465.22;;;9.25;100.00
12247;BME280;6186;52.022;4.692;2023-02-23T01:45:35;101458.25;;;9.24;100.00
12247;BME280;6186;52.022;4.692;2023-02-23T01:48:14;101453.91;;;9.20;100.00
12247;BME280;6186;52.022;4.692;2023-02-23T01:50:46;101461.75;;;9.25;100.00
12247;BME280;6186;52.022;4.692;2023-02-23T01:53:15;101457.41;;;9.21;100.00
12247;BME280;6186;52.022;4.692;2023-02-23T01:55:41;101456.50;;;9.23;100.00
12247;BME280;6186;52.022;4.692;2023-02-23T01:58:10;101455.63;;;9.23;100.00
12247;BME280;6186;52.022;4.692;2023-02-23T02:00:41;101464.41;;;9.23;100.00
12247;BME280;6186;52.022;4.692;2023-02-23T02:03:11;101460.88;;;9.23;100.00
12247;BME280;6186;52.022;4.692;2023-02-23T02:05:38;101459.13;;;9.22;100.00
12247;BME280;6186;52.022;4.692;2023-02-23T02:08:07;101469.63;;;9.22;100.00
12247;BME280;6186;52.022;4.692;2023-02-23T02:10:34;101468.75;;;9.23;100.00
12247;BME280;6186;52.022;4.692;2023-02-23T02:13:22;101475.75;;;9.24;100.00
12247;BME280;6186;52.022;4.692;2023-02-23T02:38:19;101471.41;;;9.20;100.00
12247;BME280;6186;52.022;4.692;2023-02-23T02:40:57;101467.06;;;9.17;100.00
12247;BME280;6186;52.022;4.692;2023-02-23T02:46:00;101469.69;;;9.19;100.00
12247;BME280;6186;52.022;4.692;2023-02-23T02:49:02;101473.19;;;9.16;100.00
12247;BME280;6186;52.022;4.692;2023-02-23T02:54:40;101467.06;;;9.17;100.00
12247;BME280;6186;52.022;4.692;2023-02-23T02:57:07;101460.06;;;9.15;100.00
12247;BME280;6186;52.022;4.692;2023-02-23T02:59:45;101446.22;;;9.02;100.00
12247;BME280;6186;52.022;4.692;2023-02-23T03:02:32;101461.88;;;9.11;100.00
12247;BME280;6186;52.022;4.692;2023-02-23T03:15:17;101456.66;;;9.08;100.00
12247;BME280;6186;52.022;4.692;2023-02-23T03:21:26;101451.41;;;9.05;100.00
12247;BME280;6186;52.022;4.692;2023-02-23T03:27:22;101466.31;;;9.03;100.00
12247;BME280;6186;52.022;4.692;2023-02-23T03:31:06;101468.06;;;9.04;100.00
12247;BME280;6186;52.022;4.692;2023-02-23T03:33:50;101468.94;;;9.03;100.00
12247;BME280;6186;52.022;4.692;2023-02-23T03:36:45;101475.09;;;9.01;100.00
12247;BME280;6186;52.022;4.692;2023-02-23T03:39:36;101477.72;;;9.02;100.00
12247;BME280;6186;52.022;4.692;2023-02-23T03:42:27;101469.88;;;8.96;100.00
12247;BME280;6186;52.022;4.692;2023-02-23T03:45:16;101484.69;;;9.03;100.00
12247;BME280;6186;52.022;4.692;2023-02-23T03:48:04;101491.72;;;9.04;100.00
12247;BME280;6186;52.022;4.692;2023-02-23T03:50:51;101495.22;;;9.02;100.00
12247;BME280;6186;52.022;4.692;2023-02-23T03:53:46;101490.81;;;9.04;100.00
12247;BME280;6186;52.022;4.692;2023-02-23T03:56:36;101490.84;;;9.02;100.00
12247;BME280;6186;52.022;4.692;2023-02-23T03:59:31;101492.56;;;9.03;100.00
12247;BME280;6186;52.022;4.692;2023-02-23T04:02:19;101503.06;;;9.03;100.00
12247;BME280;6186;52.022;4.692;2023-02-23T04:05:08;101500.44;;;9.03;100.00
12247;BME280;6186;52.022;4.692;2023-02-23T04:07:54;101498.69;;;9.04;100.00
12247;BME280;6186;52.022;4.692;2023-02-23T04:10:45;101511.81;;;9.05;100.00
12247;BME280;6186;52.022;4.692;2023-02-23T04:13:33;101503.06;;;9.05;100.00
12247;BME280;6186;52.022;4.692;2023-02-23T04:16:08;101498.69;;;9.04;100.00
12247;BME280;6186;52.022;4.692;2023-02-23T04:18:37;101505.69;;;9.03;100.00
12247;BME280;6186;52.022;4.692;2023-02-23T04:21:04;101507.47;;;9.04;100.00
12247;BME280;6186;52.022;4.692;2023-02-23T04:23:30;101499.56;;;9.03;100.00
12247;BME280;6186;52.022;4.692;2023-02-23T04:25:55;101503.97;;;9.02;100.00
12247;BME280;6186;52.022;4.692;2023-02-23T04:28:22;101504.00;;;8.98;100.00
12247;BME280;6186;52.022;4.692;2023-02-23T04:30:48;101497.88;;;8.97;100.00
12247;BME280;6186;52.022;4.692;2023-02-23T04:33:14;101506.63;;;9.01;100.00
12247;BME280;6186;52.022;4.692;2023-02-23T04:35:39;101500.47;;;9.00;100.00
12247;BME280;6186;52.022;4.692;2023-02-23T04:38:05;101504.84;;;9.01;100.00
12247;BME280;6186;52.022;4.692;2023-02-23T04:40:30;101498.72;;;8.99;100.00
12247;BME280;6186;52.022;4.692;2023-02-23T04:42:56;101505.72;;;9.02;100.00
12247;BME280;6186;52.022;4.692;2023-02-23T04:45:22;101497.00;;;8.98;100.00
12247;BME280;6186;52.022;4.692;2023-02-23T04:47:48;101507.47;;;9.01;100.00
12247;BME280;6186;52.022;4.692;2023-02-23T04:50:14;101491.75;;;8.95;100.00
12247;BME280;6186;52.022;4.692;2023-02-23T04:52:40;101507.50;;;8.98;100.00
12247;BME280;6186;52.022;4.692;2023-02-23T04:55:07;101505.75;;;8.97;100.00
12247;BME280;6186;52.022;4.692;2023-02-23T04:57:33;101512.75;;;8.98;100.00
12247;BME280;6186;52.022;4.692;2023-02-23T04:59:59;101509.22;;;8.99;100.00
12247;BME280;6186;52.022;4.692;2023-02-23T05:02:25;101516.25;;;9.00;100.00
12247;BME280;6186;52.022;4.692;2023-02-23T05:04:51;101511.00;;;8.99;100.00
12247;BME280;6186;52.022;4.692;2023-02-23T05:07:16;101516.25;;;8.97;100.00
12247;BME280;6186;52.022;4.692;2023-02-23T05:09:41;101517.16;;;8.95;100.00
12247;BME280;6186;52.022;4.692;2023-02-23T05:12:07;101527.66;;;8.93;100.00
12247;BME280;6186;52.022;4.692;2023-02-23T05:14:33;101520.69;;;8.88;100.00
12247;BME280;6186;52.022;4.692;2023-02-23T05:16:58;101533.81;;;8.91;100.00
12247;BME280;6186;52.022;4.692;2023-02-23T05:19:23;101537.31;;;8.91;100.00
12247;BME280;6186;52.022;4.692;2023-02-23T05:21:49;101537.31;;;8.90;100.00
12247;BME280;6186;52.022;4.692;2023-02-23T05:24:15;101539.06;;;8.88;100.00
12247;BME280;6186;52.022;4.692;2023-02-23T05:26:41;101552.19;;;8.88;100.00
12247;BME280;6186;52.022;4.692;2023-02-23T05:29:07;101549.59;;;8.86;100.00
12247;BME280;6186;52.022;4.692;2023-02-23T05:31:34;101549.59;;;8.86;100.00
12247;BME280;6186;52.022;4.692;2023-02-23T05:33:59;101549.59;;;8.86;100.00
12247;BME280;6186;52.022;4.692;2023-02-23T05:36:25;101537.34;;;8.82;100.00
12247;BME280;6186;52.022;4.692;2023-02-23T05:38:50;101540.88;;;8.83;100.00
12247;BME280;6186;52.022;4.692;2023-02-23T05:41:18;101540.88;;;8.81;100.00
12247;BME280;6186;52.022;4.692;2023-02-23T05:43:44;101558.38;;;8.82;100.00
12247;BME280;6186;52.022;4.692;2023-02-23T05:46:14;101547.88;;;8.82;100.00
12247;BME280;6186;52.022;4.692;2023-02-23T05:48:40;101552.25;;;8.83;100.00
12247;BME280;6186;52.022;4.692;2023-02-23T05:51:08;101554.88;;;8.83;100.00
12247;BME280;6186;52.022;4.692;2023-02-23T05:53:34;101558.38;;;8.82;100.00
12247;BME280;6186;52.022;4.692;2023-02-23T05:56:02;101553.13;;;8.84;100.00
12247;BME280;6186;52.022;4.692;2023-02-23T05:58:28;101552.25;;;8.83;100.00
12247;BME280;6186;52.022;4.692;2023-02-23T06:00:54;101552.25;;;8.80;100.00
12247;BME280;6186;52.022;4.692;2023-02-23T06:03:19;101556.63;;;8.83;100.00
12247;BME280;6186;52.022;4.692;2023-02-23T06:05:50;101540.91;;;8.77;100.00
12247;BME280;6186;52.022;4.692;2023-02-23T06:08:16;101555.75;;;8.81;100.00
12247;BME280;6186;52.022;4.692;2023-02-23T06:10:41;101553.13;;;8.82;100.00
12247;BME280;6186;52.022;4.692;2023-02-23T06:13:06;101558.38;;;8.82;100.00
12247;BME280;6186;52.022;4.692;2023-02-23T06:15:32;101556.63;;;8.81;100.00
12247;BME280;6186;52.022;4.692;2023-02-23T06:17:57;101555.75;;;8.81;100.00
12247;BME280;6186;52.022;4.692;2023-02-23T06:20:22;101564.50;;;8.81;100.00
12247;BME280;6186;52.022;4.692;2023-02-23T06:22:47;101568.88;;;8.82;100.00
12247;BME280;6186;52.022;4.692;2023-02-23T06:25:13;101572.38;;;8.83;100.00
12247;BME280;6186;52.022;4.692;2023-02-23T06:27:38;101573.25;;;8.80;100.00
12247;BME280;6186;52.022;4.692;2023-02-23T06:30:05;101576.75;;;8.81;100.00
12247;BME280;6186;52.022;4.692;2023-02-23T06:32:31;101581.13;;;8.80;100.00
12247;BME280;6186;52.022;4.692;2023-02-23T06:34:56;101578.50;;;8.80;100.00
12247;BME280;6186;52.022;4.692;2023-02-23T06:37:21;101575.91;;;8.77;100.00
12247;BME280;6186;52.022;4.692;2023-02-23T06:39:47;101574.16;;;8.79;100.00
12247;BME280;6186;52.022;4.692;2023-02-23T06:42:12;101573.28;;;8.76;100.00
12247;BME280;6186;52.022;4.692;2023-02-23T06:44:39;101580.25;;;8.78;100.00
12247;BME280;6186;52.022;4.692;2023-02-23T06:47:04;101582.88;;;8.78;100.00
12247;BME280;6186;52.022;4.692;2023-02-23T06:49:30;101574.19;;;8.73;100.00
12247;BME280;6186;52.022;4.692;2023-02-23T06:51:55;101589.00;;;8.79;100.00
12247;BME280;6186;52.022;4.692;2023-02-23T06:54:21;101592.53;;;8.78;100.00
12247;BME280;6186;52.022;4.692;2023-02-23T06:56:47;101589.94;;;8.76;100.00
12247;BME280;6186;52.022;4.692;2023-02-23T06:59:14;101593.38;;;8.78;100.00
12247;BME280;6186;52.022;4.692;2023-02-23T07:01:39;101603.03;;;8.78;100.00
12247;BME280;6186;52.022;4.692;2023-02-23T07:04:06;101606.50;;;8.81;100.00
12247;BME280;6186;52.022;4.692;2023-02-23T07:06:31;101610.00;;;8.82;100.00
12247;BME280;6186;52.022;4.692;2023-02-23T07:08:57;101609.13;;;8.81;100.00
12247;BME280;6186;52.022;4.692;2023-02-23T07:11:22;101621.38;;;8.82;100.00
12247;BME280;6186;52.022;4.692;2023-02-23T07:13:48;101621.38;;;8.82;100.00
12247;BME280;6186;52.022;4.692;2023-02-23T07:16:13;101630.97;;;8.85;100.00
12247;BME280;6186;52.022;4.692;2023-02-23T07:18:40;101638.88;;;8.85;100.00
12247;BME280;6186;52.022;4.692;2023-02-23T07:21:06;101649.34;;;8.86;100.00
12247;BME280;6186;52.022;4.692;2023-02-23T07:23:32;101658.97;;;8.84;100.00
12247;BME280;6186;52.022;4.692;2023-02-23T07:25:57;101667.72;;;8.88;100.00
12247;BME280;6186;52.022;4.692;2023-02-23T07:28:23;101662.47;;;8.89;100.00
12247;BME280;6186;52.022;4.692;2023-02-23T07:30:54;101661.59;;;8.90;100.00
12247;BME280;6186;52.022;4.692;2023-02-23T07:33:19;101665.09;;;8.88;100.00
12247;BME280;6186;52.022;4.692;2023-02-23T07:35:45;101668.56;;;8.90;100.00
12247;BME280;6186;52.022;4.692;2023-02-23T07:38:10;101670.34;;;8.91;100.00
12247;BME280;6186;52.022;4.692;2023-02-23T07:40:36;101676.47;;;8.91;100.00
12247;BME280;6186;52.022;4.692;2023-02-23T07:43:02;101675.59;;;8.89;100.00
12247;BME280;6186;52.022;4.692;2023-02-23T07:45:27;101680.84;;;8.89;100.00
12247;BME280;6186;52.022;4.692;2023-02-23T07:47:52;101682.56;;;8.92;100.00
12247;BME280;6186;52.022;4.692;2023-02-23T07:50:18;101680.81;;;8.92;100.00
12247;BME280;6186;52.022;4.692;2023-02-23T07:52:43;101684.31;;;8.94;100.00
12247;BME280;6186;52.022;4.692;2023-02-23T07:55:09;101685.19;;;8.96;100.00
12247;BME280;6186;52.022;4.692;2023-02-23T07:57:35;101684.31;;;8.94;100.00
12247;BME280;6186;52.022;4.692;2023-02-23T08:00:01;101689.53;;;9.00;100.00
12247;BME280;6186;52.022;4.692;2023-02-23T08:02:27;101687.78;;;9.02;100.00
12247;BME280;6186;52.022;4.692;2023-02-23T08:04:57;101684.28;;;9.06;100.00
12247;BME280;6186;52.022;4.692;2023-02-23T08:07:22;101687.75;;;9.08;100.00
12247;BME280;6186;52.022;4.692;2023-02-23T08:09:50;101696.47;;;9.10;100.00
12247;BME280;6186;52.022;4.692;2023-02-23T08:12:16;101696.47;;;9.15;100.00
12247;BME280;6186;52.022;4.692;2023-02-23T08:14:41;101694.72;;;9.15;100.00
12247;BME280;6186;52.022;4.692;2023-02-23T08:17:07;101702.56;;;9.18;100.00
12247;BME280;6186;52.022;4.692;2023-02-23T08:19:32;101711.28;;;9.22;100.00
12247;BME280;6186;52.022;4.692;2023-02-23T08:21:58;101713.03;;;9.26;100.00
12247;BME280;6186;52.022;4.692;2023-02-23T08:24:24;101712.97;;;9.33;100.00
12247;BME280;6186;52.022;4.692;2023-02-23T08:26:51;101717.34;;;9.40;100.00
12247;BME280;6186;52.022;4.692;2023-02-23T08:29:16;101718.16;;;9.47;100.00
12247;BME280;6186;52.022;4.692;2023-02-23T08:31:42;101714.63;;;9.51;100.00
12247;BME280;6186;52.022;4.692;2023-02-23T08:34:08;101713.75;;;9.54;100.00
12247;BME280;6186;52.022;4.692;2023-02-23T08:36:34;101718.03;;;9.65;100.00
12247;BME280;6186;52.022;4.692;2023-02-23T08:38:59;101719.69;;;9.77;100.00
12247;BME280;6186;52.022;4.692;2023-02-23T08:41:25;101723.94;;;9.90;100.00
12247;BME280;6186;52.022;4.692;2023-02-23T08:43:52;101722.13;;;9.99;100.00
12247;BME280;6186;52.022;4.692;2023-02-23T08:46:18;101722.97;;;10.04;100.00
12247;BME280;6186;52.022;4.692;2023-02-23T08:48:45;101730.84;;;10.06;100.00
12247;BME280;6186;52.022;4.692;2023-02-23T08:51:11;101731.72;;;10.06;100.00
12247;BME280;6186;52.022;4.692;2023-02-23T08:53:37;101736.97;;;10.06;100.00
12247;BME280;6186;52.022;4.692;2023-02-23T08:56:04;101740.47;;;10.05;100.00
12247;BME280;6186;52.022;4.692;2023-02-23T08:58:30;101746.59;;;10.12;100.00
12247;BME280;6186;52.022;4.692;2023-02-23T09:00:57;101752.72;;;10.14;100.00
12247;BME280;6186;52.022;4.692;2023-02-23T09:03:23;101753.59;;;10.16;100.00
12247;BME280;6186;52.022;4.692;2023-02-23T09:05:50;101753.59;;;10.16;100.00
12247;BME280;6186;52.022;4.692;2023-02-23T09:08:16;101752.66;;;10.18;100.00
12247;BME280;6186;52.022;4.692;2023-02-23T09:10:41;101748.28;;;10.19;100.00
12247;BME280;6186;52.022;4.692;2023-02-23T09:13:09;101748.25;;;10.20;100.00
12247;BME280;6186;52.022;4.692;2023-02-23T09:15:35;101759.66;;;10.21;100.00
12247;BME280;6186;52.022;4.692;2023-02-23T09:18:00;101754.41;;;10.21;100.00
12247;BME280;6186;52.022;4.692;2023-02-23T09:20:26;101763.19;;;10.21;100.00
12247;BME280;6186;52.022;4.692;2023-02-23T09:22:52;101772.88;;;10.18;100.00
12247;BME280;6186;52.022;4.692;2023-02-23T09:25:18;101773.78;;;10.14;100.00
12247;BME280;6186;52.022;4.692;2023-02-23T09:27:48;101778.19;;;10.10;100.00
12247;BME280;6186;52.022;4.692;2023-02-23T09:30:15;101779.91;;;10.13;100.00
12247;BME280;6186;52.022;4.692;2023-02-23T09:32:52;101777.28;;;10.16;100.00
12247;BME280;6186;52.022;4.692;2023-02-23T09:35:20;101783.38;;;10.19;100.00
12247;BME280;6186;52.022;4.692;2023-02-23T09:37:51;101793.88;;;10.21;100.00
12247;BME280;6186;52.022;4.692;2023-02-23T09:40:19;101779.00;;;10.20;100.00
12247;BME280;6186;52.022;4.692;2023-02-23T09:45:25;101779.81;;;10.22;100.00
12247;BME280;6186;52.022;4.692;2023-02-23T09:48:13;101778.06;;;10.22;100.00
12247;BME280;6186;52.022;4.692;2023-02-23T09:50:44;101756.22;;;10.14;100.00
12247;BME280;6186;52.022;4.692;2023-02-23T09:53:31;101770.09;;;10.30;100.00
12247;BME280;6186;52.022;4.692;2023-02-23T09:55:59;101765.69;;;10.35;100.00
12247;BME280;6186;52.022;4.692;2023-02-23T09:58:27;101761.31;;;10.34;100.00
12247;BME280;6186;52.022;4.692;2023-02-23T10:03:55;101779.56;;;10.49;100.00
12247;BME280;6186;52.022;4.692;2023-02-23T10:06:23;101780.47;;;10.50;100.00
12247;BME280;6186;52.022;4.692;2023-02-23T10:20:12;101783.13;;;10.45;100.00
12247;BME280;6186;52.022;4.692;2023-02-23T10:22:43;101789.28;;;10.41;100.00
12247;BME280;6186;52.022;4.692;2023-02-23T10:25:16;101789.34;;;10.36;100.00
12247;BME280;6186;52.022;4.692;2023-02-23T10:27:47;101797.28;;;10.32;100.00
12247;BME280;6186;52.022;4.692;2023-02-23T10:33:19;101801.72;;;10.27;100.00
12247;BME280;6186;52.022;4.692;2023-02-23T10:35:45;101802.63;;;10.23;100.00
12247;BME280;6186;52.022;4.692;2023-02-23T10:38:15;101800.03;;;10.20;100.00
12247;BME280;6186;52.022;4.692;2023-02-23T10:40:44;101802.69;;;10.17;100.00
12247;BME280;6186;52.022;4.692;2023-02-23T10:43:12;101805.31;;;10.20;100.00
12247;BME280;6186;52.022;4.692;2023-02-23T10:45:45;101797.41;;;10.20;100.00
12247;BME280;6186;52.022;4.692;2023-02-23T10:48:35;101815.78;;;10.23;100.00
12247;BME280;6186;52.022;4.692;2023-02-23T10:51:03;101814.03;;;10.20;100.00
12247;BME280;6186;52.022;4.692;2023-02-23T10:53:35;101816.72;;;10.17;100.00
12247;BME280;6186;52.022;4.692;2023-02-23T10:56:12;101810.59;;;10.14;100.00
12247;BME280;6186;52.022;4.692;2023-02-23T10:58:47;101803.59;;;10.11;100.00
12247;BME280;6186;52.022;4.692;2023-02-23T11:06:43;101801.91;;;9.98;100.00
12247;BME280;6186;52.022;4.692;2023-02-23T11:09:21;101809.78;;;10.00;100.00
12247;BME280;6186;52.022;4.692;2023-02-23T11:12:03;101815.09;;;9.97;100.00
12247;BME280;6186;52.022;4.692;2023-02-23T11:14:30;101796.72;;;9.91;100.00
12247;BME280;6186;52.022;4.692;2023-02-23T11:16:56;101804.56;;;9.94;100.00
12247;BME280;6186;52.022;4.692;2023-02-23T11:19:35;101812.47;;;9.92;100.00
12247;BME280;6186;52.022;4.692;2023-02-23T11:22:03;101816.00;;;9.91;100.00
12247;BME280;6186;52.022;4.692;2023-02-23T11:24:36;101828.25;;;9.97;100.00
12247;BME280;6186;52.022;4.692;2023-02-23T11:27:06;101822.94;;;10.00;100.00
12247;BME280;6186;52.022;4.692;2023-02-23T11:29:43;101829.03;;;10.06;100.00
12247;BME280;6186;52.022;4.692;2023-02-23T11:32:17;101826.38;;;10.14;100.00
12247;BME280;6186;52.022;4.692;2023-02-23T11:34:45;101825.50;;;10.18;100.00
12247;BME280;6186;52.022;4.692;2023-02-23T11:39:58;101806.94;;;10.31;100.00
12247;BME280;6186;52.022;4.692;2023-02-23T11:42:31;101820.88;;;10.44;100.00
12247;BME280;6186;52.022;4.692;2023-02-23T11:45:17;101801.53;;;10.48;100.00
12247;BME280;6186;52.022;4.692;2023-02-23T11:47:47;101790.09;;;10.49;100.00
12247;BME280;6186;52.022;4.692;2023-02-23T11:50:44;101801.44;;;10.54;100.00
12247;BME280;6186;52.022;4.692;2023-02-23T11:53:14;101797.09;;;10.53;100.00
12247;BME280;6186;52.022;4.692;2023-02-23T11:55:49;101803.25;;;10.52;100.00
12247;BME280;6186;52.022;4.692;2023-02-23T12:00:59;101805.94;;;10.43;100.00
12247;BME280;6186;52.022;4.692;2023-02-23T12:03:26;101804.22;;;10.39;100.00
12247;BME280;6186;52.022;4.692;2023-02-23T12:05:55;101806.03;;;10.37;100.00
12247;BME280;6186;52.022;4.692;2023-02-23T12:08:52;101812.16;;;10.36;100.00
12247;BME280;6186;52.022;4.692;2023-02-23T12:11:24;101813.94;;;10.34;100.00
12247;BME280;6186;52.022;4.692;2023-02-23T12:13:57;101809.56;;;10.33;100.00
12247;BME280;6186;52.022;4.692;2023-02-23T12:16:32;101816.56;;;10.37;100.00
12247;BME280;6186;52.022;4.692;2023-02-23T12:19:26;101813.88;;;10.41;100.00
12247;BME280;6186;52.022;4.692;2023-02-23T12:22:03;101814.69;;;10.47;100.00
12247;BME280;6186;52.022;4.692;2023-02-23T12:27:09;101807.56;;;10.59;100.00
12247;BME280;6186;52.022;4.692;2023-02-23T12:33:02;101804.88;;;10.65;100.00
12247;BME280;6186;52.022;4.692;2023-02-23T12:35:35;101794.31;;;10.68;100.00
12247;BME280;6186;52.022;4.692;2023-02-23T12:38:12;101801.16;;;10.83;100.00
12247;BME280;6186;52.022;4.692;2023-02-23T12:40:42;101794.56;;;11.21;100.00
12247;BME280;6186;52.022;4.692;2023-02-23T12:43:16;101809.66;;;11.76;100.00
12247;BME280;6186;52.022;4.692;2023-02-23T12:48:47;101809.00;;;12.18;100.00
12247;BME280;6186;52.022;4.692;2023-02-23T12:51:24;101803.97;;;12.03;100.00
12247;BME280;6186;52.022;4.692;2023-02-23T12:53:52;101795.41;;;11.89;100.00
12247;BME280;6186;52.022;4.692;2023-02-23T13:02:24;101802.63;;;11.76;100.00
12247;BME280;6186;52.022;4.692;2023-02-23T13:05:15;101803.53;;;11.74;100.00
12247;BME280;6186;52.022;4.692;2023-02-23T13:16:03;101808.50;;;11.31;100.00
12247;BME280;6186;52.022;4.692;2023-02-23T13:24:03;101802.47;;;11.21;100.00
12247;BME280;6186;52.022;4.692;2023-02-23T13:26:42;101806.06;;;11.16;100.00
12247;BME280;6186;52.022;4.692;2023-02-23T13:31:48;101806.09;;;11.11;100.00
12247;BME280;6186;52.022;4.692;2023-02-23T13:34:42;101805.25;;;11.09;100.00
12247;BME280;6186;52.022;4.692;2023-02-23T13:37:11;101795.63;;;11.08;100.00
12247;BME280;6186;52.022;4.692;2023-02-23T13:42:33;101792.94;;;11.11;100.00
12247;BME280;6186;52.022;4.692;2023-02-23T13:53:43;101800.13;;;10.97;100.00
12247;BME280;6186;52.022;4.692;2023-02-23T13:56:21;101810.69;;;10.94;100.00
12247;BME280;6186;52.022;4.692;2023-02-23T13:58:52;101793.16;;;10.93;100.00
12247;BME280;6186;52.022;4.692;2023-02-23T14:01:29;101804.56;;;10.94;100.00
12247;BME280;6186;52.022;4.692;2023-02-23T14:03:57;101799.31;;;10.94;100.00
12247;BME280;6186;52.022;4.692;2023-02-23T14:06:26;101807.19;;;10.92;100.00
12247;BME280;6186;52.022;4.692;2023-02-23T14:09:37;101810.69;;;10.94;100.00
12247;BME280;6186;52.022;4.692;2023-02-23T14:14:39;101808.09;;;10.93;100.00
12247;BME280;6186;52.022;4.692;2023-02-23T14:20:34;101798.44;;;10.90;100.00
12247;BME280;6186;52.022;4.692;2023-02-23T14:22:29;101800.19;;;10.91;100.00
12247;BME280;6186;52.022;4.692;2023-02-23T14:27:58;101798.47;;;10.87;100.00
12247;BME280;6186;52.022;4.692;2023-02-23T14:30:28;101804.63;;;10.89;100.00
12247;BME280;6186;52.022;4.692;2023-02-23T14:33:00;101799.28;;;10.92;100.00
12247;BME280;6186;52.022;4.692;2023-02-23T14:38:03;101794.00;;;10.97;100.00
12247;BME280;6186;52.022;4.692;2023-02-23T14:40:32;101785.28;;;10.92;100.00
12247;BME280;6186;52.022;4.692;2023-02-23T14:43:01;101794.88;;;10.94;100.00
12247;BME280;6186;52.022;4.692;2023-02-23T14:45:30;101780.84;;;10.92;100.00
12247;BME280;6186;52.022;4.692;2023-02-23T14:48:10;101791.34;;;10.98;100.00
12247;BME280;6186;52.022;4.692;2023-02-23T14:50:37;101792.19;;;11.00;100.00
12247;BME280;6186;52.022;4.692;2023-02-23T14:53:06;101791.31;;;11.00;100.00
12247;BME280;6186;52.022;4.692;2023-02-23T14:55:40;101805.38;;;10.99;100.00
12247;BME280;6186;52.022;4.692;2023-02-23T14:58:24;101806.25;;;10.98;100.00
12247;BME280;6186;52.022;4.692;2023-02-23T15:00:50;101805.47;;;10.91;100.00
12247;BME280;6186;52.022;4.692;2023-02-23T15:03:16;101808.16;;;10.85;100.00
12247;BME280;6186;52.022;4.692;2023-02-23T15:05:47;101809.06;;;10.83;100.00
12247;BME280;6186;52.022;4.692;2023-02-23T15:08:20;101800.31;;;10.81;100.00
12247;BME280;6186;52.022;4.692;2023-02-23T15:10:50;101807.38;;;10.77;100.00
12247;BME280;6186;52.022;4.692;2023-02-23T15:13:34;101806.56;;;10.71;100.00
12247;BME280;6186;52.022;4.692;2023-02-23T15:16:17;101804.88;;;10.65;100.00
12247;BME280;6186;52.022;4.692;2023-02-23T15:18:47;101815.41;;;10.64;100.00
12247;BME280;6186;52.022;4.692;2023-02-23T15:21:19;101819.84;;;10.59;100.00
12247;BME280;6186;52.022;4.692;2023-02-23T15:23:51;101822.53;;;10.56;100.00
12247;BME280;6186;52.022;4.692;2023-02-23T15:26:29;101821.66;;;10.51;100.00